Time;durP1;ratioP1;P1;durP2;ratioP2;P2;SDS_P1;SDS_P2;PMS_P1;PMS_P2;Temp;Humidity;BMP_temperature;BMP_pressure;BME280_temperature;BME280_humidity;BME280_pressure;Samples;Min_cycle;Max_cycle;Signal;HPM_P1;HPM_P2
2022/05/20 00:01:14;;;;;;;9.50;3.80;;;;;;;8.58;69.81;101825.84;105191;1273;60579;-69
2022/05/20 00:03:44;;;;;;;10.40;4.00;;;;;;;8.54;69.42;101829.33;105236;1274;59546;-71
2022/05/20 00:06:14;;;;;;;7.60;4.40;;;;;;;8.49;69.08;101829.73;105213;1273;74627;-70
2022/05/20 00:08:43;;;;;;;12.30;4.70;;;;;;;8.44;68.48;101831.17;105245;1274;72749;-70
2022/05/20 00:11:12;;;;;;;7.90;4.50;;;;;;;8.38;69.08;101834.38;105089;1276;68568;-70
2022/05/20 00:13:42;;;;;;;7.80;3.90;;;;;;;8.34;69.77;101832.65;105181;1273;72500;-70
2022/05/20 00:16:11;;;;;;;7.70;3.90;;;;;;;8.31;70.29;101832.97;105149;1276;61892;-71
2022/05/20 00:18:41;;;;;;;9.50;3.60;;;;;;;8.29;70.17;101832.70;105275;1274;60299;-70
2022/05/20 00:21:10;;;;;;;7.70;3.50;;;;;;;8.26;69.22;101833.34;105082;1276;73271;-70
2022/05/20 00:23:39;;;;;;;9.00;3.60;;;;;;;8.22;69.53;101831.80;105169;1276;71276;-70
2022/05/20 00:26:08;;;;;;;9.20;3.70;;;;;;;8.17;69.99;101828.52;105270;1276;71418;-70
2022/05/20 00:28:37;;;;;;;7.60;3.50;;;;;;;8.14;69.74;101829.34;105283;1276;74364;-69
2022/05/20 00:31:10;;;;;;;6.90;3.50;;;;;;;8.14;70.50;101828.66;105190;1276;62691;-71
2022/05/20 00:33:38;;;;;;;;;;;;;;;8.13;70.23;101826.63;105237;1276;61770;-72
2022/05/20 00:36:08;;;;;;;8.50;3.90;;;;;;;8.11;70.61;101826.55;105265;1276;74357;-68
2022/05/20 00:38:37;;;;;;;7.60;4.60;;;;;;;8.07;70.53;101821.35;105209;1276;71133;-69
2022/05/20 00:41:08;;;;;;;8.10;4.10;;;;;;;8.02;70.18;101820.56;105336;1276;69839;-70
2022/05/20 00:43:47;;;;;;;6.10;3.50;;;;;;;7.98;71.56;101816.68;105424;1275;73060;-69
2022/05/20 00:46:22;;;;;;;9.90;3.70;;;;;;;7.99;71.49;101816.33;105411;1276;62264;-69
2022/05/20 00:49:01;;;;;;;6.10;2.90;;;;;;;7.97;71.59;101817.96;105345;1276;61830;-70
2022/05/20 00:51:58;;;;;;;7.40;3.50;;;;;;;7.97;71.85;101817.47;105325;1276;73255;-69
2022/05/20 00:54:35;;;;;;;5.50;3.20;;;;;;;8.00;71.78;101821.33;105263;1276;70110;-69
2022/05/20 00:57:12;;;;;;;7.90;3.60;;;;;;;8.01;71.82;101829.63;105212;1276;68577;-69
2022/05/20 00:59:48;;;;;;;6.50;3.90;;;;;;;7.99;71.80;101822.91;105266;1276;71484;-69
2022/05/20 01:02:20;;;;;;;7.80;3.90;;;;;;;7.97;72.19;101822.65;105151;1276;63167;-69
2022/05/20 01:04:59;;;;;;;11.30;4.30;;;;;;;7.95;72.08;101822.57;105051;1276;62667;-69
2022/05/20 01:07:34;;;;;;;8.50;3.80;;;;;;;7.93;71.80;101829.92;105439;1276;73119;-70
2022/05/20 01:10:04;;;;;;;8.80;3.80;;;;;;;7.90;72.05;101821.23;105212;1276;69742;-70
2022/05/20 01:12:33;;;;;;;9.50;4.10;;;;;;;7.91;72.06;101820.34;105266;1276;69675;-69
2022/05/20 01:15:07;;;;;;;9.10;4.20;;;;;;;7.91;72.09;101824.64;105351;1276;71994;-69
2022/05/20 01:17:38;;;;;;;5.70;3.80;;;;;;;7.89;71.04;101832.73;105466;1275;61366;-69
2022/05/20 01:20:14;;;;;;;6.30;3.90;;;;;;;7.83;72.19;101825.70;105266;1276;60420;-69
2022/05/20 01:23:01;;;;;;;7.60;3.80;;;;;;;7.81;72.40;101827.67;105253;1276;73296;-69
2022/05/20 01:25:30;;;;;;;8.00;3.80;;;;;;;7.77;72.65;101829.59;105119;1276;71256;-70
2022/05/20 01:28:00;;;;;;;7.40;3.90;;;;;;;7.73;72.93;101825.08;105135;1276;70671;-70
2022/05/20 01:30:31;;;;;;;13.60;4.40;;;;;;;7.68;73.15;101825.27;105128;1276;72781;-69
2022/05/20 01:33:07;;;;;;;8.20;3.70;;;;;;;7.62;72.69;101828.31;105096;1276;61986;-69
2022/05/20 01:35:42;;;;;;;9.20;4.00;;;;;;;7.55;71.77;101831.21;105098;1276;59684;-69
2022/05/20 01:38:12;;;;;;;8.30;4.30;;;;;;;7.46;71.60;101830.92;105208;1276;71884;-70
2022/05/20 01:40:50;;;;;;;6.90;3.80;;;;;;;7.37;72.31;101829.53;105189;1276;71676;-69
2022/05/20 01:43:34;;;;;;;7.10;3.70;;;;;;;7.33;73.95;101824.33;105246;1276;70191;-68
2022/05/20 01:46:20;;;;;;;8.50;4.30;;;;;;;7.35;74.31;101827.70;105255;1276;72600;-69
2022/05/20 01:49:44;;;;;;;10.50;4.00;;;;;;;7.38;74.07;101820.68;105223;1276;63656;-69
2022/05/20 01:52:42;;;;;;;6.50;3.80;;;;;;;7.38;74.24;101819.98;105193;1276;59618;-71
2022/05/20 01:56:13;;;;;;;8.70;4.00;;;;;;;7.35;73.42;101817.65;105228;1276;72621;-69
2022/05/20 01:59:16;;;;;;;6.30;4.10;;;;;;;7.25;72.41;101818.09;105085;1280;69917;-70
2022/05/20 02:02:09;;;;;;;7.50;3.90;;;;;;;7.12;72.53;101816.00;105184;1280;69919;-69
2022/05/20 02:04:50;;;;;;;5.50;3.60;;;;;;;7.04;72.94;101818.08;105392;1275;73755;-71
2022/05/20 02:07:28;;;;;;;9.20;4.00;;;;;;;6.96;72.87;101816.81;105284;1279;62752;-71
2022/05/20 02:10:34;;;;;;;6.30;3.60;;;;;;;6.87;72.47;101813.36;105175;1276;61337;-70
2022/05/20 02:13:07;;;;;;;7.10;3.40;;;;;;;6.77;73.72;101815.33;105303;1276;72785;-69
2022/05/20 02:15:52;;;;;;;;;;;;;;;6.71;72.82;101809.66;105318;1277;70503;-71
2022/05/20 02:18:35;;;;;;;8.10;3.50;;;;;;;6.68;72.82;101811.17;105402;1276;68036;-69
2022/05/20 02:21:11;;;;;;;10.50;4.00;;;;;;;6.69;75.44;101807.14;105388;1276;72178;-71
2022/05/20 02:23:50;;;;;;;5.60;3.40;;;;;;;6.72;75.94;101808.61;105509;1276;62250;-70
2022/05/20 02:26:25;;;;;;;11.20;4.30;;;;;;;6.79;76.53;101812.30;105478;1276;60499;-69
2022/05/20 02:29:02;;;;;;;7.80;4.00;;;;;;;6.88;76.23;101816.60;105372;1276;73244;-71
2022/05/20 02:31:42;;;;;;;8.10;4.00;;;;;;;6.96;75.80;101819.94;105104;1276;71460;-72
2022/05/20 02:34:11;;;;;;;8.50;4.30;;;;;;;7.01;75.52;101818.36;105080;1276;70438;-71
2022/05/20 02:36:40;;;;;;;7.90;4.00;;;;;;;7.02;75.65;101821.41;105066;1276;74543;-70
2022/05/20 02:39:15;;;;;;;9.90;4.80;;;;;;;7.01;75.52;101822.48;105010;1276;60215;-67
2022/05/20 02:41:46;;;;;;;12.80;3.80;;;;;;;6.99;75.91;101829.20;105026;1276;61932;-69
2022/05/20 02:44:16;;;;;;;8.60;4.10;;;;;;;6.97;75.65;101829.05;105040;1277;74515;-71
2022/05/20 02:46:47;;;;;;;9.90;4.30;;;;;;;6.97;75.76;101828.38;105149;1276;73357;-72
2022/05/20 02:49:15;;;;;;;6.40;3.80;;;;;;;6.94;76.27;101824.18;105042;1276;69752;-70
2022/05/20 02:51:44;;;;;;;10.00;4.00;;;;;;;6.98;75.92;101823.83;105045;1276;74569;-70
2022/05/20 02:54:13;;;;;;;11.50;4.40;;;;;;;7.02;75.81;101822.66;105068;1276;61841;-69
2022/05/20 02:56:42;;;;;;;7.80;4.10;;;;;;;7.04;75.83;101821.69;105269;1276;59820;-68
2022/05/20 03:04:51;;;;;;;11.00;4.80;;;;;;;7.11;75.86;101821.25;105175;1276;69585;-73
2022/05/20 03:07:20;;;;;;;11.70;4.60;;;;;;;7.10;75.37;101821.80;105161;1276;73246;-70
2022/05/20 03:09:51;;;;;;;9.20;4.50;;;;;;;7.09;75.59;101825.28;105131;1275;60880;-70
2022/05/20 03:12:21;;;;;;;5.70;3.90;;;;;;;7.10;75.77;101824.92;105059;1276;61470;-70
2022/05/20 03:14:50;;;;;;;8.70;4.30;;;;;;;7.13;75.70;101829.11;105008;1276;74811;-72
2022/05/20 03:17:20;;;;;;;7.70;4.40;;;;;;;7.14;74.50;101827.89;105041;1276;71220;-70
2022/05/20 03:19:49;;;;;;;11.30;4.50;;;;;;;7.13;75.52;101834.64;105118;1274;69287;-71
2022/05/20 03:22:18;;;;;;;6.90;4.00;;;;;;;7.18;76.41;101834.30;105002;1276;71339;-70
2022/05/20 03:24:47;;;;;;;8.70;4.40;;;;;;;7.25;75.86;101833.69;105017;1276;60766;-70
2022/05/20 03:27:17;;;;;;;11.90;6.50;;;;;;;7.31;75.94;101836.88;105076;1279;59876;-69
2022/05/20 03:29:48;;;;;;;14.60;6.70;;;;;;;7.39;75.83;101837.45;105177;1276;72608;-70
2022/05/20 03:32:16;;;;;;;9.80;5.10;;;;;;;7.45;75.74;101834.41;105163;1276;71883;-71
2022/05/20 03:34:45;;;;;;;7.60;4.60;;;;;;;7.51;75.55;101832.41;105228;1273;71333;-72
2022/05/20 03:37:14;;;;;;;12.00;5.30;;;;;;;7.57;75.30;101828.00;105183;1273;72612;-70
2022/05/20 03:39:43;;;;;;;9.60;5.00;;;;;;;7.66;75.12;101830.05;105219;1273;61297;-70
2022/05/20 03:42:12;;;;;;;9.70;5.00;;;;;;;7.78;74.54;101832.33;105264;1273;61116;-71
2022/05/20 03:44:41;;;;;;;13.10;6.70;;;;;;;7.86;74.41;101833.73;105033;1276;74714;-72
2022/05/20 03:47:10;;;;;;;17.50;8.70;;;;;;;7.97;74.28;101831.31;105093;1276;70321;-71
2022/05/20 03:49:42;;;;;;;19.00;8.00;;;;;;;8.07;73.21;101837.15;105160;1276;69604;-71
2022/05/20 03:52:11;;;;;;;16.80;8.70;;;;;;;8.17;72.58;101840.85;105111;1274;72754;-72
2022/05/20 03:54:41;;;;;;;24.90;10.50;;;;;;;8.27;72.79;101845.27;105206;1273;60967;-70
2022/05/20 03:57:11;;;;;;;24.10;10.10;;;;;;;8.42;72.84;101844.46;105094;1276;61692;-72
2022/05/20 03:59:40;;;;;;;15.50;8.40;;;;;;;8.56;72.34;101844.19;105188;1274;72255;-72
2022/05/20 04:02:12;;;;;;;14.00;7.50;;;;;;;8.69;71.85;101842.02;105085;1273;73861;-69
2022/05/20 04:04:46;;;;;;;22.80;8.10;;;;;;;8.86;71.39;101844.32;105218;1273;69910;-70
2022/05/20 04:07:27;;;;;;;16.60;7.50;;;;;;;9.04;71.02;101842.44;105168;1275;72093;-70
2022/05/20 04:09:56;;;;;;;18.10;7.00;;;;;;;9.21;70.23;101841.27;105196;1276;60874;-70
2022/05/20 04:12:34;;;;;;;18.10;7.30;;;;;;;9.34;69.06;101838.19;105274;1276;61728;-73
2022/05/20 04:15:07;;;;;;;16.00;5.60;;;;;;;9.44;68.48;101838.40;105416;1274;73094;-74
2022/05/20 04:17:36;;;;;;;12.70;5.80;;;;;;;9.45;68.05;101825.31;105329;1276;70392;-71
2022/05/20 04:20:08;;;;;;;12.30;5.70;;;;;;;9.57;67.50;101833.06;105416;1276;68078;-70
2022/05/20 04:22:39;;;;;;;13.70;6.10;;;;;;;9.65;67.40;101835.79;105226;1276;72059;-73
2022/05/20 04:25:09;;;;;;;16.70;5.60;;;;;;;9.73;66.06;101837.30;105201;1276;61677;-70
2022/05/20 04:27:39;;;;;;;17.40;6.50;;;;;;;9.84;65.68;101830.48;105353;1276;59693;-71
2022/05/20 04:30:10;;;;;;;14.50;6.90;;;;;;;9.98;65.09;101822.41;105237;1276;73493;-68
2022/05/20 04:32:38;;;;;;;17.80;6.60;;;;;;;10.11;65.32;101823.15;105301;1276;73006;-70
2022/05/20 04:35:08;;;;;;;14.10;6.50;;;;;;;10.22;65.12;101825.34;105331;1276;68903;-74
2022/05/20 04:37:37;;;;;;;13.20;6.40;;;;;;;10.33;65.33;101822.84;105271;1276;74511;-69
2022/05/20 04:40:07;;;;;;;14.70;6.90;;;;;;;10.44;65.42;101821.39;105222;1275;60505;-71
2022/05/20 04:48:12;;;;;;;15.00;6.00;;;;;;;10.90;64.07;101824.25;105433;1276;70893;-72
2022/05/20 04:50:41;;;;;;;16.10;6.20;;;;;;;11.07;63.32;101823.30;105436;1276;68043;-76
2022/05/20 04:54:49;;;;;;;14.80;6.00;;;;;;;11.23;62.47;101823.27;105154;1276;73455;-71
2022/05/20 04:55:59;;;;;;;12.30;5.40;;;;;;;11.39;62.02;101819.04;105181;1274;61897;-70
2022/05/20 04:58:28;;;;;;;18.60;6.20;;;;;;;11.49;61.49;101816.34;105227;1276;61218;-72
2022/05/20 05:00:58;;;;;;;11.20;4.80;;;;;;;11.64;61.42;101824.56;105217;1275;73325;-72
2022/05/20 05:03:27;;;;;;;8.10;3.90;;;;;;;11.76;60.86;101824.69;105209;1276;72388;-72
2022/05/20 05:05:56;;;;;;;15.40;4.00;;;;;;;11.92;60.49;101827.61;105183;1276;69829;-72
2022/05/20 05:08:25;;;;;;;18.40;5.70;;;;;;;12.08;60.07;101817.92;105018;1276;72130;-74
2022/05/20 05:10:54;;;;;;;14.70;5.60;;;;;;;12.23;60.01;101821.17;105351;1274;59794;-73
2022/05/20 05:13:23;;;;;;;12.10;5.30;;;;;;;12.37;59.38;101815.59;105366;1276;61262;-71
2022/05/20 05:15:51;;;;;;;13.70;5.60;;;;;;;12.51;59.04;101815.77;105400;1276;75360;-73
2022/05/20 05:18:23;;;;;;;14.50;5.40;;;;;;;12.66;58.30;101817.06;105352;1275;73334;-72
2022/05/20 05:20:52;;;;;;;13.70;5.10;;;;;;;12.81;57.38;101809.45;105315;1276;70338;-74
2022/05/20 05:23:21;;;;;;;8.30;4.60;;;;;;;12.94;56.98;101811.61;105077;1275;72568;-71
2022/05/20 05:25:50;;;;;;;14.60;5.40;;;;;;;13.06;56.58;101813.11;105160;1275;61356;-72
2022/05/20 05:28:21;;;;;;;16.30;4.90;;;;;;;13.12;56.35;101803.81;105222;1276;61908;-71
2022/05/20 05:30:52;;;;;;;11.60;4.40;;;;;;;13.32;56.15;101816.70;105225;1276;75296;-71
2022/05/20 05:33:21;;;;;;;12.00;4.30;;;;;;;13.44;55.54;101813.03;105304;1275;70263;-70
2022/05/20 05:35:50;;;;;;;8.50;4.20;;;;;;;13.60;55.32;101814.81;105301;1275;70797;-72
2022/05/20 05:38:24;;;;;;;10.90;4.30;;;;;;;13.77;55.25;101810.83;105180;1276;71994;-72
2022/05/20 05:40:53;;;;;;;7.90;3.60;;;;;;;13.94;54.90;101811.05;105071;1276;62119;-73
2022/05/20 05:43:22;;;;;;;8.40;3.40;;;;;;;14.12;53.22;101806.10;105209;1275;61146;-72
2022/05/20 05:45:52;;;;;;;6.50;3.20;;;;;;;14.30;52.70;101813.98;105099;1276;75216;-72
2022/05/20 05:48:21;;;;;;;7.00;2.80;;;;;;;14.43;51.76;101814.29;104962;1276;72385;-73
2022/05/20 05:50:49;;;;;;;5.90;3.20;;;;;;;14.57;51.46;101814.52;105145;1276;70769;-75
2022/05/20 05:53:21;;;;;;;8.70;3.30;;;;;;;14.67;51.31;101807.88;105171;1276;74023;-72
2022/05/20 05:55:57;;;;;;;7.30;3.00;;;;;;;14.88;50.90;101818.77;105215;1276;62432;-75
2022/05/20 05:58:28;;;;;;;8.70;3.10;;;;;;;15.04;49.93;101815.84;105374;1276;61791;-77
2022/05/20 06:00:58;;;;;;;5.60;2.80;;;;;;;15.23;48.82;101813.89;105232;1276;73250;-76
2022/05/20 06:03:27;;;;;;;5.40;2.50;;;;;;;15.39;48.87;101809.54;105450;1276;72744;-73
2022/05/20 06:05:56;;;;;;;7.20;3.30;;;;;;;15.55;47.54;101812.55;105087;1279;68809;-71
2022/05/20 06:08:25;;;;;;;9.70;3.30;;;;;;;15.66;47.13;101809.07;105048;1276;74353;-73
2022/05/20 06:11:00;;;;;;;9.20;3.40;;;;;;;15.80;47.54;101807.33;105012;1276;59810;-73
2022/05/20 06:13:30;;;;;;;8.50;3.60;;;;;;;15.93;47.27;101806.50;105119;1276;59715;-73
2022/05/20 06:15:59;;;;;;;10.00;3.20;;;;;;;16.04;47.19;101804.41;105151;1276;74593;-71
2022/05/20 06:18:28;;;;;;;6.20;2.90;;;;;;;16.12;47.21;101799.91;105033;1276;71945;-73
2022/05/20 06:20:58;;;;;;;7.00;3.00;;;;;;;16.23;47.29;101793.45;105125;1276;70790;-73
2022/05/20 06:23:27;;;;;;;5.80;3.20;;;;;;;16.38;46.61;101792.60;105148;1276;72687;-71
2022/05/20 06:25:57;;;;;;;9.30;3.10;;;;;;;16.50;46.41;101787.92;105146;1276;59259;-73
2022/05/20 06:28:45;;;;;;;7.60;3.90;;;;;;;16.62;46.59;101791.02;105168;1276;62253;-73
2022/05/20 06:31:14;;;;;;;6.60;3.20;;;;;;;16.75;46.26;101789.48;105236;1276;73226;-72
2022/05/20 06:33:43;;;;;;;6.20;3.20;;;;;;;16.89;46.02;101791.49;105211;1276;70936;-72
2022/05/20 06:39:49;;;;;;;6.40;3.10;;;;;;;17.18;44.57;101779.88;104725;1282;72702;-72
2022/05/20 06:42:21;;;;;;;7.90;2.90;;;;;;;17.32;43.82;101773.32;104632;1282;60598;-72
2022/05/20 06:44:53;;;;;;;8.30;2.70;;;;;;;17.45;43.34;101769.20;105004;1276;63066;-72
2022/05/20 06:47:22;;;;;;;6.20;2.50;;;;;;;17.59;42.66;101770.30;105269;1276;73750;-73
2022/05/20 06:49:51;;;;;;;6.60;2.60;;;;;;;17.74;41.36;101769.41;105288;1275;61015;-75
2022/05/20 06:52:20;;;;;;;8.00;3.30;;;;;;;17.94;39.76;101766.26;105322;1276;69264;-75
2022/05/20 06:55:08;;;;;;;7.70;3.60;;;;;;;18.10;40.84;101763.09;105275;1276;63920;-74
2022/05/20 06:57:39;;;;;;;8.80;3.50;;;;;;;18.29;41.26;101762.17;105402;1276;59649;-74
2022/05/20 07:00:11;;;;;;;6.60;3.80;;;;;;;18.47;41.73;101757.89;105448;1276;59771;-72
2022/05/20 07:02:40;;;;;;;8.50;3.30;;;;;;;18.64;41.51;101760.20;105268;1275;65440;-70
2022/05/20 07:05:11;;;;;;;12.90;4.00;;;;;;;18.83;40.94;101762.27;105219;1276;72360;-71
2022/05/20 07:07:40;;;;;;;7.50;3.40;;;;;;;18.97;41.00;101761.66;105162;1276;60449;-70
2022/05/20 07:10:13;;;;;;;10.70;4.50;;;;;;;19.17;39.91;101761.05;105213;1276;63860;-71
2022/05/20 07:12:42;;;;;;;9.20;3.50;;;;;;;19.28;39.57;101759.81;105204;1276;62375;-72
2022/05/20 07:15:11;;;;;;;6.70;2.90;;;;;;;19.43;39.30;101761.15;105219;1276;58000;-70
2022/05/20 07:17:41;;;;;;;6.90;2.90;;;;;;;19.57;37.47;101761.23;105258;1276;73929;-70
2022/05/20 07:20:10;;;;;;;8.00;2.80;;;;;;;19.68;37.56;101758.09;105174;1276;72969;-70
2022/05/20 07:22:39;;;;;;;6.80;3.30;;;;;;;19.84;37.06;101758.17;105158;1276;60531;-70
2022/05/20 07:25:10;;;;;;;7.60;2.80;;;;;;;20.00;36.83;101759.33;105125;1276;74621;-70
2022/05/20 07:27:39;;;;;;;4.90;2.20;;;;;;;20.11;36.36;101754.69;105099;1276;61776;-73
2022/05/20 07:30:09;;;;;;;7.60;2.70;;;;;;;20.30;33.46;101754.78;105370;1276;61210;-72
2022/05/20 07:32:37;;;;;;;8.10;3.10;;;;;;;20.41;33.34;101749.80;105270;1276;76248;-71
2022/05/20 07:35:09;;;;;;;5.50;2.60;;;;;;;20.57;34.64;101742.85;105206;1275;73523;-69
2022/05/20 07:37:37;;;;;;;6.30;2.30;;;;;;;20.75;33.51;101740.44;105260;1276;70528;-71
2022/05/20 07:40:08;;;;;;;5.90;2.80;;;;;;;20.79;33.35;101736.91;105277;1275;74091;-71
2022/05/20 07:42:37;;;;;;;11.10;2.60;;;;;;;20.93;33.51;101737.27;105265;1274;62052;-72
2022/05/20 07:45:07;;;;;;;5.10;2.20;;;;;;;21.07;32.82;101739.40;105380;1276;61845;-72
2022/05/20 07:47:35;;;;;;;5.40;2.00;;;;;;;21.15;33.06;101741.13;105363;1276;75339;-70
2022/05/20 07:50:07;;;;;;;6.50;2.50;;;;;;;21.19;33.39;101739.63;105363;1276;72973;-70
2022/05/20 07:55:34;;;;;;;5.00;2.10;;;;;;;21.33;31.97;101737.14;105245;1274;74536;-70
2022/05/20 07:58:15;;;;;;;4.80;2.20;;;;;;;21.35;31.77;101733.94;105314;1274;60064;-71
2022/05/20 08:00:43;;;;;;;5.70;2.00;;;;;;;21.55;31.26;101734.36;105334;1274;61703;-71
2022/05/20 08:04:52;;;;;;;4.10;1.90;;;;;;;21.64;30.86;101733.19;105428;1274;65686;-71
2022/05/20 08:06:03;;;;;;;4.50;2.20;;;;;;;21.76;31.64;101728.45;104827;1274;806302;-72
2022/05/20 08:08:36;;;;;;;5.10;2.10;;;;;;;21.87;30.75;101731.66;105331;1274;69893;-70
2022/05/20 08:11:05;;;;;;;11.70;2.80;;;;;;;21.91;30.43;101724.20;105196;1273;70859;-74
2022/05/20 08:13:34;;;;;;;3.50;1.90;;;;;;;22.15;31.17;101723.16;105155;1274;59179;-71
2022/05/20 08:16:04;;;;;;;4.00;1.90;;;;;;;22.27;31.19;101723.67;105172;1274;59707;-66
2022/05/20 08:18:33;;;;;;;6.70;2.10;;;;;;;22.29;30.09;101721.45;105217;1276;73738;-73
2022/05/20 08:21:02;;;;;;;4.00;1.90;;;;;;;22.38;29.33;101717.70;105235;1275;62237;-69
2022/05/20 08:23:31;;;;;;;4.40;1.90;;;;;;;22.43;29.09;101715.69;105149;1276;70198;-72
2022/05/20 08:26:00;;;;;;;5.70;1.80;;;;;;;22.47;29.21;101707.81;105226;1275;73043;-71
2022/05/20 08:28:29;;;;;;;10.30;2.50;;;;;;;22.67;29.73;101704.98;105310;1276;61029;-71
2022/05/20 08:30:57;;;;;;;4.10;1.90;;;;;;;22.93;28.97;101704.77;105398;1275;61717;-70
2022/05/20 08:33:26;;;;;;;4.00;1.90;;;;;;;22.98;28.94;101699.69;105301;1276;74150;-70
2022/05/20 08:35:57;;;;;;;2.90;1.50;;;;;;;23.02;28.28;101694.61;105193;1276;70808;-74
2022/05/20 08:38:27;;;;;;;5.80;1.70;;;;;;;23.09;27.72;101688.90;105220;1276;70688;-69
2022/05/20 08:40:59;;;;;;;4.40;1.60;;;;;;;23.22;27.58;101687.83;105205;1276;72883;-73
2022/05/20 08:43:32;;;;;;;4.20;1.70;;;;;;;23.39;26.84;101684.10;105130;1276;59676;-74
2022/05/20 08:46:06;;;;;;;4.80;1.50;;;;;;;23.46;26.55;101683.72;105120;1276;59555;-71
2022/05/20 08:48:35;;;;;;;4.90;1.70;;;;;;;23.47;26.39;101684.38;105197;1274;74591;-71
2022/05/20 08:51:04;;;;;;;4.20;1.60;;;;;;;23.48;26.66;101677.95;105304;1274;62190;-71
2022/05/20 08:53:40;;;;;;;3.20;1.60;;;;;;;23.40;26.26;101677.44;105264;1274;60008;-69
2022/05/20 08:56:14;;;;;;;2.20;1.50;;;;;;;23.40;26.81;101671.41;105233;1276;63463;-70
2022/05/20 08:59:01;;;;;;;3.80;1.30;;;;;;;23.68;25.89;101672.99;105154;1276;60720;-72
2022/05/20 09:01:38;;;;;;;6.20;1.70;;;;;;;23.67;25.84;101674.40;105287;1275;59634;-70
2022/05/20 09:04:10;;;;;;;4.00;1.80;;;;;;;23.61;26.22;101669.25;105266;1275;63930;-72
2022/05/20 09:07:00;;;;;;;3.40;1.50;;;;;;;23.60;26.24;101669.45;105254;1276;61704;-71
2022/05/20 09:09:55;;;;;;;3.90;1.60;;;;;;;23.86;25.40;101669.35;105230;1275;60208;-70
2022/05/20 09:12:36;;;;;;;5.30;1.60;;;;;;;24.01;25.58;101661.13;105201;1276;63444;-69
2022/05/20 09:18:18;;;;;;;3.30;1.30;;;;;;;24.50;25.49;101651.52;105158;1276;59162;-70
2022/05/20 09:20:56;;;;;;;2.90;1.60;;;;;;;24.80;24.46;101643.68;105322;1274;75123;-66
2022/05/20 09:23:26;;;;;;;5.10;1.60;;;;;;;24.93;23.76;101641.08;105344;1275;61695;-70
2022/05/20 09:26:01;;;;;;;3.00;1.50;;;;;;;24.91;23.88;101637.73;105321;1274;59635;-71
2022/05/20 09:28:50;;;;;;;3.00;1.50;;;;;;;24.97;23.90;101630.05;105346;1274;63200;-74
2022/05/20 09:31:32;;;;;;;4.00;1.80;;;;;;;25.08;23.82;101626.93;105222;1276;59563;-71
2022/05/20 09:34:10;;;;;;;5.10;1.60;;;;;;;25.13;24.06;101624.95;105228;1276;60066;-72
2022/05/20 09:36:56;;;;;;;3.40;1.40;;;;;;;25.36;23.59;101616.99;105204;1275;73850;-70
2022/05/20 09:39:43;;;;;;;5.00;1.70;;;;;;;25.38;23.50;101609.31;105217;1276;71636;-73
2022/05/20 09:42:16;;;;;;;3.70;1.50;;;;;;;25.55;23.52;101609.36;105176;1276;60145;-73
2022/05/20 09:44:58;;;;;;;2.80;1.40;;;;;;;25.75;23.03;101604.19;105246;1276;63425;-72
2022/05/20 09:47:41;;;;;;;3.80;1.50;;;;;;;25.50;23.01;101606.92;105147;1276;60825;-71
2022/05/20 09:50:34;;;;;;;3.30;1.60;;;;;;;25.57;23.59;101598.98;105284;1275;61600;-71
2022/05/20 09:53:32;;;;;;;2.30;1.50;;;;;;;25.81;23.00;101590.88;105170;1276;73007;-72
2022/05/20 09:56:29;;;;;;;3.20;1.40;;;;;;;25.56;23.25;101586.08;105219;1273;61591;-70
2022/05/20 09:58:58;;;;;;;4.90;1.60;;;;;;;25.91;22.98;101579.76;105229;1274;70789;-71
2022/05/20 10:01:29;;;;;;;3.70;1.60;;;;;;;26.12;22.53;101576.31;105070;1276;75637;-71
2022/05/20 10:04:05;;;;;;;4.10;1.80;;;;;;;26.13;22.47;101573.23;105083;1277;59689;-73
2022/05/20 10:06:46;;;;;;;3.70;1.60;;;;;;;26.27;22.28;101568.21;105237;1276;59536;-72
2022/05/20 10:09:47;;;;;;;4.50;1.60;;;;;;;26.89;21.62;101568.05;105177;1276;73638;-73
2022/05/20 10:12:31;;;;;;;4.00;1.80;;;;;;;27.13;21.67;101565.55;105115;1275;73161;-72
2022/05/20 10:15:24;;;;;;;3.10;1.40;;;;;;;27.22;21.17;101563.45;105255;1275;70561;-72
2022/05/20 10:18:02;;;;;;;3.20;1.50;;;;;;;27.26;21.02;101563.83;105282;1276;66075;-70
2022/05/20 10:21:16;;;;;;;2.90;1.50;;;;;;;27.02;21.11;101559.27;105179;1276;60905;-71
2022/05/20 10:24:08;;;;;;;2.60;1.20;;;;;;;27.40;21.59;101553.60;105304;1276;59557;-72
2022/05/20 10:27:17;;;;;;;7.30;1.80;;;;;;;27.98;20.24;101551.49;105289;1276;63808;-71
2022/05/20 10:33:10;;;;;;;2.50;1.40;;;;;;;27.34;21.21;101548.31;105396;1274;59586;-73
2022/05/20 10:35:38;;;;;;;3.50;1.80;;;;;;;27.27;21.35;101547.23;105490;1274;73435;-72
2022/05/20 10:38:32;;;;;;;5.40;1.50;;;;;;;27.04;21.96;101540.55;105482;1274;61073;-74
2022/05/20 10:41:13;;;;;;;2.30;1.30;;;;;;;27.30;21.90;101535.98;105443;1275;59708;-73
2022/05/20 10:50:24;;;;;;;7.80;1.90;;;;;;;28.13;20.34;101519.56;105204;1276;71092;-73
2022/05/20 10:52:53;;;;;;;3.40;1.40;;;;;;;28.37;19.57;101516.88;105426;1276;63825;-73
2022/05/20 10:55:56;;;;;;;4.40;1.60;;;;;;;28.31;20.28;101515.23;105428;1276;60995;-73
2022/05/20 10:58:49;;;;;;;4.30;1.50;;;;;;;28.45;20.20;101506.59;105412;1276;61829;-74
2022/05/20 11:01:45;;;;;;;3.70;1.10;;;;;;;28.90;18.85;101502.17;105331;1276;75411;-73
2022/05/20 11:04:43;;;;;;;4.20;1.50;;;;;;;29.04;18.42;101503.29;105443;1276;62177;-74
2022/05/20 11:08:11;;;;;;;5.90;1.60;;;;;;;29.07;18.96;101505.27;105165;1276;60188;-75
2022/05/20 11:11:07;;;;;;;3.40;1.90;;;;;;;29.10;18.72;101500.64;105275;1276;63280;-73
2022/05/20 11:13:58;;;;;;;1.90;1.40;;;;;;;28.70;19.55;101488.17;105165;1276;60428;-73
2022/05/20 11:17:20;;;;;;;4.00;1.40;;;;;;;28.87;19.10;101489.89;105199;1276;61166;-72
2022/05/20 11:20:44;;;;;;;3.90;1.40;;;;;;;28.87;19.38;101483.44;105125;1276;63798;-72
2022/05/20 11:23:22;;;;;;;3.00;1.40;;;;;;;29.20;18.77;101482.38;105034;1276;62013;-73
2022/05/20 11:26:15;;;;;;;4.90;1.60;;;;;;;29.31;18.81;101481.59;105196;1276;68514;-71
2022/05/20 11:29:02;;;;;;;3.70;1.70;;;;;;;29.52;19.06;101480.05;105176;1276;74681;-72
2022/05/20 11:31:41;;;;;;;2.30;1.50;;;;;;;29.94;18.34;101480.78;105256;1276;58025;-72
2022/05/20 11:35:01;;;;;;;2.20;1.30;;;;;;;29.93;18.01;101481.95;105229;1276;57832;-73
2022/05/20 11:38:04;;;;;;;5.00;1.60;;;;;;;29.70;18.60;101477.87;105223;1276;63977;-72
2022/05/20 11:41:34;;;;;;;4.50;1.60;;;;;;;29.77;19.00;101470.52;105269;1274;61581;-72
2022/05/20 11:44:36;;;;;;;4.00;1.40;;;;;;;30.27;18.54;101463.94;105002;1276;60175;-73
2022/05/20 11:47:38;;;;;;;3.70;1.60;;;;;;;30.22;18.62;101456.17;105255;1275;74061;-71
2022/05/20 11:50:49;;;;;;;2.60;1.30;;;;;;;29.93;19.00;101450.48;105434;1276;59596;-75
2022/05/20 11:53:46;;;;;;;5.90;3.70;;;;;;;29.59;19.77;101443.10;105555;1276;61591;-73
2022/05/20 11:56:29;;;;;;;5.00;1.70;;;;;;;29.86;19.05;101436.85;105426;1276;75046;-72
2022/05/20 11:59:15;;;;;;;4.20;2.10;;;;;;;29.74;18.47;101430.98;105420;1276;62206;-73
2022/05/20 12:01:48;;;;;;;4.20;1.60;;;;;;;29.55;18.49;101430.35;105391;1275;60130;-70
2022/05/20 12:04:21;;;;;;;4.80;2.00;;;;;;;29.51;17.84;101427.80;105392;1275;62617;-72
2022/05/20 12:06:59;;;;;;;4.70;1.50;;;;;;;29.15;17.83;101428.13;105406;1275;59748;-71
2022/05/20 12:09:43;;;;;;;2.20;1.40;;;;;;;29.11;18.18;101420.87;105405;1277;61124;-72
2022/05/20 12:12:30;;;;;;;3.70;1.60;;;;;;;29.12;18.75;101414.36;105356;1276;74358;-71
2022/05/20 12:15:14;;;;;;;3.90;1.50;;;;;;;29.59;18.37;101406.17;105265;1276;72683;-71
2022/05/20 12:17:50;;;;;;;6.50;1.60;;;;;;;29.93;18.25;101401.98;105247;1275;71573;-71
2022/05/20 12:26:00;;;;;;;4.70;1.10;;;;;;;30.41;16.65;101381.88;105210;1274;61464;-72
2022/05/20 12:28:36;;;;;;;7.80;1.30;;;;;;;30.08;17.27;101378.99;105288;1274;63715;-73
2022/05/20 12:31:22;;;;;;;5.10;1.40;;;;;;;30.59;16.03;101376.89;105197;1277;61800;-71
2022/05/20 12:34:09;;;;;;;2.90;1.10;;;;;;;30.50;15.98;101366.17;105259;1276;68805;-72
2022/05/20 12:36:41;;;;;;;2.80;0.80;;;;;;;31.20;14.98;101357.11;105208;1277;73166;-71
2022/05/20 12:39:11;;;;;;;4.90;1.40;;;;;;;31.05;15.46;101350.08;105259;1276;59685;-72